sensor_id;sensor_type;location;lat;lon;timestamp;P1;durP1;ratioP1;P2;durP2;ratioP2
3006;SDS011;1513;47.650;10.720;2023-05-19T00:01:56;6.47;;;4.80;;
3006;SDS011;1513;47.650;10.720;2023-05-19T00:04:24;7.23;;;4.73;;
3006;SDS011;1513;47.650;10.720;2023-05-19T00:06:52;6.77;;;4.63;;
3006;SDS011;1513;47.650;10.720;2023-05-19T00:09:18;7.87;;;4.30;;
3006;SDS011;1513;47.650;10.720;2023-05-19T00:11:45;4.60;;;3.33;;
3006;SDS011;1513;47.650;10.720;2023-05-19T00:14:12;5.80;;;4.10;;
3006;SDS011;1513;47.650;10.720;2023-05-19T00:16:38;5.50;;;4.40;;
3006;SDS011;1513;47.650;10.720;2023-05-19T00:19:06;6.53;;;4.90;;
3006;SDS011;1513;47.650;10.720;2023-05-19T00:21:34;6.30;;;4.40;;
3006;SDS011;1513;47.650;10.720;2023-05-19T00:24:02;8.57;;;4.10;;
3006;SDS011;1513;47.650;10.720;2023-05-19T00:26:29;5.73;;;4.40;;
3006;SDS011;1513;47.650;10.720;2023-05-19T00:29:00;7.23;;;5.30;;
3006;SDS011;1513;47.650;10.720;2023-05-19T00:31:27;5.73;;;4.20;;
3006;SDS011;1513;47.650;10.720;2023-05-19T00:33:53;6.73;;;4.70;;
3006;SDS011;1513;47.650;10.720;2023-05-19T00:36:20;5.17;;;4.27;;
3006;SDS011;1513;47.650;10.720;2023-05-19T00:38:47;10.90;;;4.40;;
3006;SDS011;1513;47.650;10.720;2023-05-19T00:41:15;5.47;;;3.83;;
3006;SDS011;1513;47.650;10.720;2023-05-19T00:43:41;6.37;;;4.63;;
3006;SDS011;1513;47.650;10.720;2023-05-19T00:46:08;6.73;;;4.47;;
3006;SDS011;1513;47.650;10.720;2023-05-19T00:48:35;6.47;;;4.80;;
3006;SDS011;1513;47.650;10.720;2023-05-19T00:51:01;9.77;;;4.23;;
3006;SDS011;1513;47.650;10.720;2023-05-19T00:53:33;6.93;;;4.33;;
3006;SDS011;1513;47.650;10.720;2023-05-19T00:56:00;7.10;;;4.33;;
3006;SDS011;1513;47.650;10.720;2023-05-19T00:58:26;9.60;;;5.20;;
3006;SDS011;1513;47.650;10.720;2023-05-19T01:00:55;6.87;;;4.47;;
3006;SDS011;1513;47.650;10.720;2023-05-19T01:03:28;7.70;;;5.40;;
3006;SDS011;1513;47.650;10.720;2023-05-19T01:05:55;6.80;;;5.03;;
3006;SDS011;1513;47.650;10.720;2023-05-19T01:08:22;8.33;;;5.03;;
3006;SDS011;1513;47.650;10.720;2023-05-19T01:10:48;8.47;;;5.37;;
3006;SDS011;1513;47.650;10.720;2023-05-19T01:13:15;8.83;;;5.23;;
3006;SDS011;1513;47.650;10.720;2023-05-19T01:18:24;9.47;;;5.57;;
3006;SDS011;1513;47.650;10.720;2023-05-19T01:21:07;7.07;;;4.83;;
3006;SDS011;1513;47.650;10.720;2023-05-19T01:29:38;9.27;;;5.57;;
3006;SDS011;1513;47.650;10.720;2023-05-19T01:32:07;9.87;;;5.77;;
3006;SDS011;1513;47.650;10.720;2023-05-19T01:34:34;6.80;;;5.50;;
3006;SDS011;1513;47.650;10.720;2023-05-19T01:37:04;12.33;;;6.57;;
3006;SDS011;1513;47.650;10.720;2023-05-19T01:39:31;10.60;;;5.90;;
3006;SDS011;1513;47.650;10.720;2023-05-19T01:41:58;11.30;;;5.60;;
3006;SDS011;1513;47.650;10.720;2023-05-19T01:44:26;10.63;;;6.20;;
3006;SDS011;1513;47.650;10.720;2023-05-19T01:46:53;11.00;;;6.63;;
3006;SDS011;1513;47.650;10.720;2023-05-19T01:49:22;11.20;;;6.13;;
3006;SDS011;1513;47.650;10.720;2023-05-19T01:51:48;8.20;;;5.80;;
3006;SDS011;1513;47.650;10.720;2023-05-19T01:54:15;12.43;;;5.90;;
3006;SDS011;1513;47.650;10.720;2023-05-19T01:56:51;9.77;;;5.90;;
3006;SDS011;1513;47.650;10.720;2023-05-19T01:59:43;11.53;;;6.03;;
3006;SDS011;1513;47.650;10.720;2023-05-19T02:02:41;9.50;;;5.80;;
3006;SDS011;1513;47.650;10.720;2023-05-19T02:05:26;12.93;;;6.83;;
3006;SDS011;1513;47.650;10.720;2023-05-19T02:08:10;12.37;;;6.93;;
3006;SDS011;1513;47.650;10.720;2023-05-19T02:10:44;11.43;;;6.50;;
3006;SDS011;1513;47.650;10.720;2023-05-19T02:13:20;11.10;;;6.13;;
3006;SDS011;1513;47.650;10.720;2023-05-19T02:15:51;11.57;;;6.43;;
3006;SDS011;1513;47.650;10.720;2023-05-19T02:18:19;13.50;;;6.80;;
3006;SDS011;1513;47.650;10.720;2023-05-19T02:20:49;13.70;;;6.50;;
3006;SDS011;1513;47.650;10.720;2023-05-19T02:23:15;11.57;;;6.30;;
3006;SDS011;1513;47.650;10.720;2023-05-19T02:25:42;10.97;;;6.93;;
3006;SDS011;1513;47.650;10.720;2023-05-19T02:28:08;13.00;;;7.33;;
3006;SDS011;1513;47.650;10.720;2023-05-19T02:30:34;12.20;;;6.87;;
3006;SDS011;1513;47.650;10.720;2023-05-19T02:33:00;11.60;;;6.67;;
3006;SDS011;1513;47.650;10.720;2023-05-19T02:35:27;15.57;;;7.40;;
3006;SDS011;1513;47.650;10.720;2023-05-19T02:37:53;13.43;;;7.30;;
3006;SDS011;1513;47.650;10.720;2023-05-19T02:40:20;10.17;;;6.47;;
3006;SDS011;1513;47.650;10.720;2023-05-19T02:42:46;19.37;;;6.97;;
3006;SDS011;1513;47.650;10.720;2023-05-19T02:45:13;11.10;;;6.90;;
3006;SDS011;1513;47.650;10.720;2023-05-19T02:47:39;12.70;;;7.03;;
3006;SDS011;1513;47.650;10.720;2023-05-19T02:50:06;16.67;;;7.70;;
3006;SDS011;1513;47.650;10.720;2023-05-19T02:52:33;12.10;;;7.50;;
3006;SDS011;1513;47.650;10.720;2023-05-19T02:54:59;19.63;;;8.10;;
3006;SDS011;1513;47.650;10.720;2023-05-19T02:57:25;19.57;;;9.70;;
3006;SDS011;1513;47.650;10.720;2023-05-19T02:59:53;16.80;;;8.43;;
3006;SDS011;1513;47.650;10.720;2023-05-19T03:02:19;15.53;;;8.60;;
3006;SDS011;1513;47.650;10.720;2023-05-19T03:04:46;20.10;;;8.10;;
3006;SDS011;1513;47.650;10.720;2023-05-19T03:07:12;17.93;;;8.73;;
3006;SDS011;1513;47.650;10.720;2023-05-19T03:09:39;16.37;;;8.57;;
3006;SDS011;1513;47.650;10.720;2023-05-19T03:12:05;18.10;;;8.90;;
3006;SDS011;1513;47.650;10.720;2023-05-19T03:14:33;17.80;;;8.43;;
3006;SDS011;1513;47.650;10.720;2023-05-19T03:17:02;24.90;;;9.70;;
3006;SDS011;1513;47.650;10.720;2023-05-19T03:19:31;16.60;;;8.40;;
3006;SDS011;1513;47.650;10.720;2023-05-19T03:21:57;23.73;;;9.13;;
3006;SDS011;1513;47.650;10.720;2023-05-19T03:24:24;19.30;;;8.70;;
3006;SDS011;1513;47.650;10.720;2023-05-19T03:26:50;18.00;;;9.50;;
3006;SDS011;1513;47.650;10.720;2023-05-19T03:29:17;23.17;;;8.70;;
3006;SDS011;1513;47.650;10.720;2023-05-19T03:31:44;17.80;;;9.63;;
3006;SDS011;1513;47.650;10.720;2023-05-19T03:34:11;17.27;;;9.20;;
3006;SDS011;1513;47.650;10.720;2023-05-19T03:36:38;19.50;;;9.63;;
3006;SDS011;1513;47.650;10.720;2023-05-19T03:39:08;20.87;;;8.73;;
3006;SDS011;1513;47.650;10.720;2023-05-19T03:41:35;23.27;;;9.50;;
3006;SDS011;1513;47.650;10.720;2023-05-19T03:44:02;18.43;;;9.57;;
3006;SDS011;1513;47.650;10.720;2023-05-19T03:46:28;17.13;;;9.33;;
3006;SDS011;1513;47.650;10.720;2023-05-19T03:48:57;20.23;;;10.30;;
3006;SDS011;1513;47.650;10.720;2023-05-19T03:51:46;20.37;;;8.90;;
3006;SDS011;1513;47.650;10.720;2023-05-19T03:54:31;20.90;;;10.00;;
3006;SDS011;1513;47.650;10.720;2023-05-19T03:56:58;21.53;;;10.07;;
3006;SDS011;1513;47.650;10.720;2023-05-19T03:59:24;27.17;;;10.07;;
3006;SDS011;1513;47.650;10.720;2023-05-19T04:01:50;22.33;;;9.93;;
3006;SDS011;1513;47.650;10.720;2023-05-19T04:04:17;23.50;;;9.80;;
3006;SDS011;1513;47.650;10.720;2023-05-19T04:06:44;20.80;;;10.07;;
3006;SDS011;1513;47.650;10.720;2023-05-19T04:09:11;19.77;;;9.67;;
3006;SDS011;1513;47.650;10.720;2023-05-19T04:11:38;19.93;;;10.40;;
3006;SDS011;1513;47.650;10.720;2023-05-19T04:14:05;25.27;;;9.97;;
3006;SDS011;1513;47.650;10.720;2023-05-19T04:16:32;19.03;;;9.87;;
3006;SDS011;1513;47.650;10.720;2023-05-19T04:18:59;22.37;;;11.00;;
3006;SDS011;1513;47.650;10.720;2023-05-19T04:21:25;29.43;;;11.87;;
3006;SDS011;1513;47.650;10.720;2023-05-19T04:23:53;25.20;;;10.20;;
3006;SDS011;1513;47.650;10.720;2023-05-19T04:26:19;20.30;;;10.60;;
3006;SDS011;1513;47.650;10.720;2023-05-19T04:28:47;21.10;;;10.40;;
3006;SDS011;1513;47.650;10.720;2023-05-19T04:31:13;19.90;;;10.70;;
3006;SDS011;1513;47.650;10.720;2023-05-19T04:33:41;31.23;;;10.63;;
3006;SDS011;1513;47.650;10.720;2023-05-19T04:36:07;22.97;;;11.60;;
3006;SDS011;1513;47.650;10.720;2023-05-19T04:38:38;20.20;;;9.90;;
3006;SDS011;1513;47.650;10.720;2023-05-19T04:41:07;36.43;;;12.73;;
3006;SDS011;1513;47.650;10.720;2023-05-19T04:43:35;25.60;;;11.40;;
3006;SDS011;1513;47.650;10.720;2023-05-19T04:46:07;20.93;;;10.33;;
3006;SDS011;1513;47.650;10.720;2023-05-19T04:48:38;24.10;;;11.27;;
3006;SDS011;1513;47.650;10.720;2023-05-19T04:51:05;20.30;;;10.30;;
3006;SDS011;1513;47.650;10.720;2023-05-19T04:53:31;27.63;;;9.50;;
3006;SDS011;1513;47.650;10.720;2023-05-19T04:55:58;20.90;;;10.87;;
3006;SDS011;1513;47.650;10.720;2023-05-19T04:58:25;23.90;;;9.80;;
3006;SDS011;1513;47.650;10.720;2023-05-19T05:00:53;22.30;;;9.53;;
3006;SDS011;1513;47.650;10.720;2023-05-19T05:03:22;23.50;;;10.97;;
3006;SDS011;1513;47.650;10.720;2023-05-19T05:05:50;16.47;;;9.47;;
3006;SDS011;1513;47.650;10.720;2023-05-19T05:08:16;16.60;;;9.90;;
3006;SDS011;1513;47.650;10.720;2023-05-19T05:10:51;18.93;;;10.10;;
3006;SDS011;1513;47.650;10.720;2023-05-19T05:13:20;26.23;;;8.87;;
3006;SDS011;1513;47.650;10.720;2023-05-19T05:15:47;16.73;;;9.13;;
3006;SDS011;1513;47.650;10.720;2023-05-19T05:18:14;19.23;;;9.30;;
3006;SDS011;1513;47.650;10.720;2023-05-19T05:20:41;17.77;;;9.40;;
3006;SDS011;1513;47.650;10.720;2023-05-19T05:23:09;19.33;;;9.03;;
3006;SDS011;1513;47.650;10.720;2023-05-19T05:25:41;16.50;;;9.53;;
3006;SDS011;1513;47.650;10.720;2023-05-19T05:28:08;19.23;;;10.13;;
3006;SDS011;1513;47.650;10.720;2023-05-19T05:30:36;18.63;;;9.17;;
3006;SDS011;1513;47.650;10.720;2023-05-19T05:33:03;19.43;;;8.50;;
3006;SDS011;1513;47.650;10.720;2023-05-19T05:35:36;19.20;;;9.33;;
3006;SDS011;1513;47.650;10.720;2023-05-19T05:38:03;17.40;;;9.47;;
3006;SDS011;1513;47.650;10.720;2023-05-19T05:40:30;15.27;;;7.93;;
3006;SDS011;1513;47.650;10.720;2023-05-19T05:42:56;16.37;;;9.10;;
3006;SDS011;1513;47.650;10.720;2023-05-19T05:45:25;16.20;;;7.87;;
3006;SDS011;1513;47.650;10.720;2023-05-19T05:47:52;19.80;;;9.37;;
3006;SDS011;1513;47.650;10.720;2023-05-19T05:50:19;16.87;;;9.17;;
3006;SDS011;1513;47.650;10.720;2023-05-19T05:52:46;19.37;;;8.87;;
3006;SDS011;1513;47.650;10.720;2023-05-19T05:55:15;20.60;;;8.73;;
3006;SDS011;1513;47.650;10.720;2023-05-19T05:57:43;20.20;;;9.20;;
3006;SDS011;1513;47.650;10.720;2023-05-19T06:00:09;17.73;;;8.37;;
3006;SDS011;1513;47.650;10.720;2023-05-19T06:02:49;14.70;;;8.00;;
3006;SDS011;1513;47.650;10.720;2023-05-19T06:05:17;15.07;;;8.30;;
3006;SDS011;1513;47.650;10.720;2023-05-19T06:07:45;13.73;;;8.50;;
3006;SDS011;1513;47.650;10.720;2023-05-19T06:10:17;14.00;;;8.03;;
3006;SDS011;1513;47.650;10.720;2023-05-19T06:12:43;17.53;;;9.33;;
3006;SDS011;1513;47.650;10.720;2023-05-19T06:15:10;17.80;;;9.10;;
3006;SDS011;1513;47.650;10.720;2023-05-19T06:17:39;16.20;;;10.03;;
3006;SDS011;1513;47.650;10.720;2023-05-19T06:20:05;18.47;;;9.10;;
3006;SDS011;1513;47.650;10.720;2023-05-19T06:22:34;20.17;;;9.73;;
3006;SDS011;1513;47.650;10.720;2023-05-19T06:25:02;15.77;;;9.80;;
3006;SDS011;1513;47.650;10.720;2023-05-19T06:27:29;26.20;;;9.93;;
3006;SDS011;1513;47.650;10.720;2023-05-19T06:29:55;16.27;;;9.37;;
3006;SDS011;1513;47.650;10.720;2023-05-19T06:32:21;21.53;;;9.60;;
3006;SDS011;1513;47.650;10.720;2023-05-19T06:34:47;18.07;;;9.40;;
3006;SDS011;1513;47.650;10.720;2023-05-19T06:37:19;15.70;;;9.57;;
3006;SDS011;1513;47.650;10.720;2023-05-19T06:39:48;25.60;;;11.33;;
3006;SDS011;1513;47.650;10.720;2023-05-19T06:42:17;15.57;;;8.50;;
3006;SDS011;1513;47.650;10.720;2023-05-19T06:45:18;19.40;;;11.20;;
3006;SDS011;1513;47.650;10.720;2023-05-19T06:47:48;14.63;;;8.30;;
3006;SDS011;1513;47.650;10.720;2023-05-19T06:50:15;15.57;;;8.07;;
3006;SDS011;1513;47.650;10.720;2023-05-19T06:52:42;20.30;;;9.77;;
3006;SDS011;1513;47.650;10.720;2023-05-19T06:55:08;14.00;;;8.10;;
3006;SDS011;1513;47.650;10.720;2023-05-19T06:57:37;14.43;;;7.90;;
3006;SDS011;1513;47.650;10.720;2023-05-19T07:00:04;16.07;;;8.40;;
3006;SDS011;1513;47.650;10.720;2023-05-19T07:02:34;13.43;;;8.17;;
3006;SDS011;1513;47.650;10.720;2023-05-19T07:05:02;13.43;;;8.47;;
3006;SDS011;1513;47.650;10.720;2023-05-19T07:07:29;23.03;;;10.27;;
3006;SDS011;1513;47.650;10.720;2023-05-19T07:09:56;17.40;;;9.27;;
3006;SDS011;1513;47.650;10.720;2023-05-19T07:12:24;17.87;;;9.00;;
3006;SDS011;1513;47.650;10.720;2023-05-19T07:14:52;14.43;;;8.50;;
3006;SDS011;1513;47.650;10.720;2023-05-19T07:17:19;15.37;;;8.37;;
3006;SDS011;1513;47.650;10.720;2023-05-19T07:19:45;18.40;;;7.40;;
3006;SDS011;1513;47.650;10.720;2023-05-19T07:22:13;17.83;;;7.20;;
3006;SDS011;1513;47.650;10.720;2023-05-19T07:24:40;14.67;;;8.20;;
3006;SDS011;1513;47.650;10.720;2023-05-19T07:27:06;14.97;;;8.87;;
3006;SDS011;1513;47.650;10.720;2023-05-19T07:29:33;11.50;;;7.70;;
3006;SDS011;1513;47.650;10.720;2023-05-19T07:32:00;15.47;;;8.30;;
3006;SDS011;1513;47.650;10.720;2023-05-19T07:34:26;16.10;;;8.50;;
3006;SDS011;1513;47.650;10.720;2023-05-19T07:36:53;15.60;;;8.80;;
3006;SDS011;1513;47.650;10.720;2023-05-19T07:39:19;16.10;;;9.20;;
3006;SDS011;1513;47.650;10.720;2023-05-19T07:41:45;13.00;;;7.40;;
3006;SDS011;1513;47.650;10.720;2023-05-19T07:44:17;15.30;;;8.63;;
3006;SDS011;1513;47.650;10.720;2023-05-19T07:46:43;13.43;;;7.40;;
3006;SDS011;1513;47.650;10.720;2023-05-19T07:49:09;18.00;;;8.13;;
3006;SDS011;1513;47.650;10.720;2023-05-19T07:51:35;15.60;;;7.77;;
3006;SDS011;1513;47.650;10.720;2023-05-19T07:54:02;18.17;;;8.33;;
3006;SDS011;1513;47.650;10.720;2023-05-19T07:56:28;13.80;;;7.70;;
3006;SDS011;1513;47.650;10.720;2023-05-19T07:58:54;17.53;;;8.90;;
3006;SDS011;1513;47.650;10.720;2023-05-19T08:01:21;14.50;;;8.37;;
3006;SDS011;1513;47.650;10.720;2023-05-19T08:03:47;13.30;;;8.83;;
3006;SDS011;1513;47.650;10.720;2023-05-19T08:06:13;16.07;;;8.37;;
3006;SDS011;1513;47.650;10.720;2023-05-19T08:08:40;14.80;;;7.80;;
3006;SDS011;1513;47.650;10.720;2023-05-19T08:11:06;16.70;;;7.10;;
3006;SDS011;1513;47.650;10.720;2023-05-19T08:13:32;14.57;;;8.57;;
3006;SDS011;1513;47.650;10.720;2023-05-19T08:15:59;12.50;;;7.93;;
3006;SDS011;1513;47.650;10.720;2023-05-19T08:18:25;16.93;;;8.30;;
3006;SDS011;1513;47.650;10.720;2023-05-19T08:20:51;19.10;;;8.27;;
3006;SDS011;1513;47.650;10.720;2023-05-19T08:23:18;26.17;;;8.93;;
3006;SDS011;1513;47.650;10.720;2023-05-19T08:25:44;16.50;;;8.77;;
3006;SDS011;1513;47.650;10.720;2023-05-19T08:28:11;16.93;;;9.23;;
3006;SDS011;1513;47.650;10.720;2023-05-19T08:30:37;15.00;;;8.53;;
3006;SDS011;1513;47.650;10.720;2023-05-19T08:33:03;17.60;;;8.67;;
3006;SDS011;1513;47.650;10.720;2023-05-19T08:35:30;12.33;;;7.87;;
3006;SDS011;1513;47.650;10.720;2023-05-19T08:37:56;13.13;;;7.13;;
3006;SDS011;1513;47.650;10.720;2023-05-19T08:40:22;12.57;;;8.43;;
3006;SDS011;1513;47.650;10.720;2023-05-19T08:42:51;15.37;;;9.40;;
3006;SDS011;1513;47.650;10.720;2023-05-19T08:45:18;13.20;;;8.40;;
3006;SDS011;1513;47.650;10.720;2023-05-19T08:47:45;16.50;;;8.70;;
3006;SDS011;1513;47.650;10.720;2023-05-19T08:50:12;12.87;;;8.13;;
3006;SDS011;1513;47.650;10.720;2023-05-19T08:55:42;15.07;;;9.37;;
3006;SDS011;1513;47.650;10.720;2023-05-19T08:58:15;20.37;;;7.90;;
3006;SDS011;1513;47.650;10.720;2023-05-19T09:00:45;12.47;;;7.67;;
3006;SDS011;1513;47.650;10.720;2023-05-19T09:03:11;14.43;;;8.30;;
3006;SDS011;1513;47.650;10.720;2023-05-19T09:05:39;13.50;;;7.43;;
3006;SDS011;1513;47.650;10.720;2023-05-19T09:08:06;18.03;;;8.50;;
3006;SDS011;1513;47.650;10.720;2023-05-19T09:10:33;13.53;;;8.00;;
3006;SDS011;1513;47.650;10.720;2023-05-19T09:12:59;14.83;;;9.00;;
3006;SDS011;1513;47.650;10.720;2023-05-19T09:15:26;13.80;;;8.00;;
3006;SDS011;1513;47.650;10.720;2023-05-19T09:18:11;11.60;;;7.53;;
3006;SDS011;1513;47.650;10.720;2023-05-19T09:20:39;11.07;;;7.33;;
3006;SDS011;1513;47.650;10.720;2023-05-19T09:23:12;17.00;;;8.33;;
3006;SDS011;1513;47.650;10.720;2023-05-19T09:25:47;15.33;;;8.17;;
3006;SDS011;1513;47.650;10.720;2023-05-19T09:28:23;11.20;;;7.20;;
3006;SDS011;1513;47.650;10.720;2023-05-19T09:30:57;11.10;;;7.80;;
3006;SDS011;1513;47.650;10.720;2023-05-19T09:33:24;12.60;;;6.87;;
3006;SDS011;1513;47.650;10.720;2023-05-19T09:35:52;16.53;;;8.30;;
3006;SDS011;1513;47.650;10.720;2023-05-19T09:38:20;15.53;;;8.33;;
3006;SDS011;1513;47.650;10.720;2023-05-19T09:40:57;12.63;;;7.40;;
3006;SDS011;1513;47.650;10.720;2023-05-19T09:43:27;17.10;;;7.70;;
3006;SDS011;1513;47.650;10.720;2023-05-19T09:45:58;10.60;;;8.00;;
3006;SDS011;1513;47.650;10.720;2023-05-19T09:48:27;13.43;;;7.40;;
3006;SDS011;1513;47.650;10.720;2023-05-19T09:50:54;11.80;;;7.70;;
3006;SDS011;1513;47.650;10.720;2023-05-19T09:53:22;11.13;;;7.60;;
3006;SDS011;1513;47.650;10.720;2023-05-19T09:55:49;14.73;;;8.27;;
3006;SDS011;1513;47.650;10.720;2023-05-19T09:58:20;10.43;;;7.30;;
3006;SDS011;1513;47.650;10.720;2023-05-19T10:00:48;19.70;;;6.60;;
3006;SDS011;1513;47.650;10.720;2023-05-19T10:03:15;10.07;;;6.73;;
3006;SDS011;1513;47.650;10.720;2023-05-19T10:05:43;8.47;;;6.37;;
3006;SDS011;1513;47.650;10.720;2023-05-19T10:08:10;16.33;;;7.17;;
3006;SDS011;1513;47.650;10.720;2023-05-19T10:10:37;10.33;;;6.70;;
3006;SDS011;1513;47.650;10.720;2023-05-19T10:13:04;20.50;;;8.30;;
3006;SDS011;1513;47.650;10.720;2023-05-19T10:15:31;11.80;;;7.73;;
3006;SDS011;1513;47.650;10.720;2023-05-19T10:17:57;17.97;;;7.50;;
3006;SDS011;1513;47.650;10.720;2023-05-19T10:20:24;11.33;;;7.30;;
3006;SDS011;1513;47.650;10.720;2023-05-19T10:22:52;11.93;;;7.30;;
3006;SDS011;1513;47.650;10.720;2023-05-19T10:25:18;17.03;;;7.27;;
3006;SDS011;1513;47.650;10.720;2023-05-19T10:27:46;13.63;;;7.30;;
3006;SDS011;1513;47.650;10.720;2023-05-19T10:30:37;11.87;;;6.90;;
3006;SDS011;1513;47.650;10.720;2023-05-19T10:33:11;11.80;;;6.73;;
3006;SDS011;1513;47.650;10.720;2023-05-19T10:38:37;10.90;;;6.70;;
3006;SDS011;1513;47.650;10.720;2023-05-19T10:44:06;8.17;;;6.13;;
3006;SDS011;1513;47.650;10.720;2023-05-19T10:46:55;11.07;;;6.53;;
3006;SDS011;1513;47.650;10.720;2023-05-19T10:49:22;7.20;;;5.50;;
3006;SDS011;1513;47.650;10.720;2023-05-19T10:51:49;9.90;;;6.57;;
3006;SDS011;1513;47.650;10.720;2023-05-19T10:54:17;7.83;;;5.50;;
3006;SDS011;1513;47.650;10.720;2023-05-19T10:57:07;7.20;;;5.40;;
3006;SDS011;1513;47.650;10.720;2023-05-19T10:59:35;8.07;;;5.20;;
3006;SDS011;1513;47.650;10.720;2023-05-19T11:02:03;7.93;;;5.53;;
3006;SDS011;1513;47.650;10.720;2023-05-19T11:04:48;7.30;;;5.70;;
3006;SDS011;1513;47.650;10.720;2023-05-19T11:07:21;10.77;;;6.97;;
3006;SDS011;1513;47.650;10.720;2023-05-19T11:09:52;7.20;;;5.80;;
3006;SDS011;1513;47.650;10.720;2023-05-19T11:12:19;9.00;;;6.17;;
3006;SDS011;1513;47.650;10.720;2023-05-19T11:14:47;9.00;;;6.43;;
3006;SDS011;1513;47.650;10.720;2023-05-19T11:17:17;8.67;;;5.40;;
3006;SDS011;1513;47.650;10.720;2023-05-19T11:19:55;10.10;;;5.40;;
3006;SDS011;1513;47.650;10.720;2023-05-19T11:22:24;5.53;;;4.60;;
3006;SDS011;1513;47.650;10.720;2023-05-19T11:24:53;15.63;;;5.83;;
3006;SDS011;1513;47.650;10.720;2023-05-19T11:30:13;7.30;;;5.43;;
3006;SDS011;1513;47.650;10.720;2023-05-19T11:32:41;6.73;;;5.60;;
3006;SDS011;1513;47.650;10.720;2023-05-19T11:35:09;9.20;;;5.47;;
3006;SDS011;1513;47.650;10.720;2023-05-19T11:37:35;8.17;;;5.13;;
3006;SDS011;1513;47.650;10.720;2023-05-19T11:40:02;6.53;;;5.10;;
3006;SDS011;1513;47.650;10.720;2023-05-19T11:42:32;7.63;;;5.30;;
3006;SDS011;1513;47.650;10.720;2023-05-19T11:44:59;8.70;;;5.90;;
3006;SDS011;1513;47.650;10.720;2023-05-19T11:47:26;9.40;;;6.13;;
3006;SDS011;1513;47.650;10.720;2023-05-19T11:49:53;9.43;;;4.80;;
3006;SDS011;1513;47.650;10.720;2023-05-19T11:52:23;8.90;;;5.80;;
3006;SDS011;1513;47.650;10.720;2023-05-19T11:54:51;5.87;;;5.10;;
3006;SDS011;1513;47.650;10.720;2023-05-19T11:57:18;9.57;;;5.67;;
3006;SDS011;1513;47.650;10.720;2023-05-19T11:59:45;6.63;;;5.20;;
3006;SDS011;1513;47.650;10.720;2023-05-19T12:04:44;7.23;;;5.73;;
3006;SDS011;1513;47.650;10.720;2023-05-19T12:07:11;7.50;;;5.33;;
3006;SDS011;1513;47.650;10.720;2023-05-19T12:09:42;7.93;;;5.27;;
3006;SDS011;1513;47.650;10.720;2023-05-19T12:12:11;6.80;;;5.17;;
3006;SDS011;1513;47.650;10.720;2023-05-19T12:14:39;11.13;;;5.90;;
3006;SDS011;1513;47.650;10.720;2023-05-19T12:17:09;7.63;;;5.50;;
3006;SDS011;1513;47.650;10.720;2023-05-19T12:19:40;8.43;;;5.40;;
3006;SDS011;1513;47.650;10.720;2023-05-19T12:22:08;9.97;;;5.47;;
3006;SDS011;1513;47.650;10.720;2023-05-19T12:24:35;6.90;;;5.07;;
3006;SDS011;1513;47.650;10.720;2023-05-19T12:27:08;7.10;;;5.60;;
3006;SDS011;1513;47.650;10.720;2023-05-19T12:29:49;6.93;;;4.83;;
3006;SDS011;1513;47.650;10.720;2023-05-19T12:32:16;16.93;;;5.17;;
3006;SDS011;1513;47.650;10.720;2023-05-19T12:34:42;6.37;;;4.83;;
3006;SDS011;1513;47.650;10.720;2023-05-19T12:37:09;8.60;;;5.60;;
3006;SDS011;1513;47.650;10.720;2023-05-19T12:39:36;6.60;;;5.33;;
3006;SDS011;1513;47.650;10.720;2023-05-19T12:42:06;9.70;;;5.50;;
3006;SDS011;1513;47.650;10.720;2023-05-19T12:44:38;11.60;;;6.00;;
3006;SDS011;1513;47.650;10.720;2023-05-19T12:47:17;6.90;;;5.00;;
3006;SDS011;1513;47.650;10.720;2023-05-19T12:52:22;10.50;;;5.60;;
3006;SDS011;1513;47.650;10.720;2023-05-19T12:54:49;13.47;;;8.37;;
3006;SDS011;1513;47.650;10.720;2023-05-19T12:57:24;7.80;;;5.77;;
3006;SDS011;1513;47.650;10.720;2023-05-19T12:59:51;7.23;;;5.67;;
3006;SDS011;1513;47.650;10.720;2023-05-19T13:02:17;7.20;;;5.20;;
3006;SDS011;1513;47.650;10.720;2023-05-19T13:04:45;8.70;;;5.77;;
3006;SDS011;1513;47.650;10.720;2023-05-19T13:07:12;9.03;;;5.60;;
3006;SDS011;1513;47.650;10.720;2023-05-19T13:09:38;6.93;;;5.60;;
3006;SDS011;1513;47.650;10.720;2023-05-19T13:12:05;8.37;;;4.73;;
3006;SDS011;1513;47.650;10.720;2023-05-19T13:14:32;8.30;;;5.60;;
3006;SDS011;1513;47.650;10.720;2023-05-19T13:16:58;7.90;;;5.30;;
3006;SDS011;1513;47.650;10.720;2023-05-19T13:19:25;8.13;;;5.13;;
3006;SDS011;1513;47.650;10.720;2023-05-19T13:21:51;7.30;;;5.20;;
3006;SDS011;1513;47.650;10.720;2023-05-19T13:24:18;10.20;;;6.00;;
3006;SDS011;1513;47.650;10.720;2023-05-19T13:26:44;8.13;;;5.90;;
3006;SDS011;1513;47.650;10.720;2023-05-19T13:29:12;10.00;;;5.83;;
3006;SDS011;1513;47.650;10.720;2023-05-19T13:31:38;13.10;;;6.23;;
3006;SDS011;1513;47.650;10.720;2023-05-19T13:34:04;9.33;;;6.33;;
3006;SDS011;1513;47.650;10.720;2023-05-19T13:36:31;12.67;;;5.90;;
3006;SDS011;1513;47.650;10.720;2023-05-19T13:38:59;9.83;;;5.93;;
3006;SDS011;1513;47.650;10.720;2023-05-19T13:41:25;10.10;;;6.60;;
3006;SDS011;1513;47.650;10.720;2023-05-19T13:43:53;8.97;;;6.13;;
3006;SDS011;1513;47.650;10.720;2023-05-19T13:46:26;9.33;;;5.90;;
3006;SDS011;1513;47.650;10.720;2023-05-19T13:48:52;13.30;;;6.67;;
3006;SDS011;1513;47.650;10.720;2023-05-19T13:51:18;11.50;;;6.13;;
3006;SDS011;1513;47.650;10.720;2023-05-19T13:53:45;9.90;;;6.30;;
3006;SDS011;1513;47.650;10.720;2023-05-19T13:56:11;8.63;;;6.27;;
3006;SDS011;1513;47.650;10.720;2023-05-19T13:58:37;7.00;;;5.80;;
3006;SDS011;1513;47.650;10.720;2023-05-19T14:01:04;7.50;;;5.70;;
3006;SDS011;1513;47.650;10.720;2023-05-19T14:03:30;9.80;;;5.87;;
3006;SDS011;1513;47.650;10.720;2023-05-19T14:05:56;7.93;;;5.77;;
3006;SDS011;1513;47.650;10.720;2023-05-19T14:08:23;9.40;;;6.20;;
3006;SDS011;1513;47.650;10.720;2023-05-19T14:10:50;12.47;;;7.73;;
3006;SDS011;1513;47.650;10.720;2023-05-19T14:13:16;13.67;;;7.73;;
3006;SDS011;1513;47.650;10.720;2023-05-19T14:15:42;9.83;;;7.00;;
3006;SDS011;1513;47.650;10.720;2023-05-19T14:18:09;10.43;;;6.60;;
3006;SDS011;1513;47.650;10.720;2023-05-19T14:20:36;8.87;;;7.17;;
3006;SDS011;1513;47.650;10.720;2023-05-19T14:23:02;11.43;;;8.60;;
3006;SDS011;1513;47.650;10.720;2023-05-19T14:25:28;9.67;;;6.83;;
3006;SDS011;1513;47.650;10.720;2023-05-19T14:27:54;13.97;;;8.20;;
3006;SDS011;1513;47.650;10.720;2023-05-19T14:30:21;13.50;;;7.70;;
3006;SDS011;1513;47.650;10.720;2023-05-19T14:32:47;15.97;;;7.37;;
3006;SDS011;1513;47.650;10.720;2023-05-19T14:35:13;12.23;;;7.63;;
3006;SDS011;1513;47.650;10.720;2023-05-19T14:37:40;9.97;;;7.63;;
3006;SDS011;1513;47.650;10.720;2023-05-19T14:40:06;12.60;;;8.20;;
3006;SDS011;1513;47.650;10.720;2023-05-19T14:42:33;10.67;;;7.43;;
3006;SDS011;1513;47.650;10.720;2023-05-19T14:44:59;9.87;;;7.93;;
3006;SDS011;1513;47.650;10.720;2023-05-19T14:47:25;9.90;;;7.43;;
3006;SDS011;1513;47.650;10.720;2023-05-19T14:49:52;11.23;;;8.30;;
3006;SDS011;1513;47.650;10.720;2023-05-19T14:52:18;12.50;;;9.10;;
3006;SDS011;1513;47.650;10.720;2023-05-19T14:54:44;15.47;;;8.70;;
3006;SDS011;1513;47.650;10.720;2023-05-19T14:57:10;15.10;;;8.87;;
3006;SDS011;1513;47.650;10.720;2023-05-19T14:59:37;13.07;;;9.10;;
3006;SDS011;1513;47.650;10.720;2023-05-19T15:02:03;15.13;;;9.00;;
3006;SDS011;1513;47.650;10.720;2023-05-19T15:04:30;12.83;;;9.90;;
3006;SDS011;1513;47.650;10.720;2023-05-19T15:06:56;13.93;;;9.57;;
3006;SDS011;1513;47.650;10.720;2023-05-19T15:09:23;14.17;;;9.43;;
3006;SDS011;1513;47.650;10.720;2023-05-19T15:11:49;16.97;;;10.13;;
3006;SDS011;1513;47.650;10.720;2023-05-19T15:14:17;18.17;;;10.27;;
3006;SDS011;1513;47.650;10.720;2023-05-19T15:16:46;17.57;;;10.83;;
3006;SDS011;1513;47.650;10.720;2023-05-19T15:19:13;23.00;;;11.93;;
3006;SDS011;1513;47.650;10.720;2023-05-19T15:21:39;19.07;;;10.83;;
3006;SDS011;1513;47.650;10.720;2023-05-19T15:24:06;19.03;;;11.33;;